Time;durP1;ratioP1;P1;durP2;ratioP2;P2;SDS_P1;SDS_P2;PMS_P1;PMS_P2;Temp;Humidity;BMP_temperature;BMP_pressure;BME280_temperature;BME280_humidity;BME280_pressure;Samples;Min_cycle;Max_cycle;Signal;HPM_P1;HPM_P2
2021/08/24 03:27:30;;;;;;;;;;;;;;;;;;;;;
2021/08/24 03:55:16;;;;;;;;;;;;;;;;;;;;;
2021/08/24 03:58:08;;;;;;;;;31.50;24.75;;;;;17.45;71.88;102033.88;5842172;24;68899;-96
2021/08/24 04:01:22;;;;;;;;;24.25;22.25;;;;;17.99;72.20;102125.00;5803025;24;46871;-96
2021/08/24 04:04:40;;;;;;;;;;;;;;;;;;;;;
2021/08/24 04:08:00;;;;;;;;;;;;;;;;;;;;;
2021/08/24 04:11:03;;;;;;;;;24.00;20.75;;;;;17.66;72.18;102064.88;5870312;24;69288;-96
2021/08/24 04:13:38;;;;;;;;;19.00;19.00;;;;;17.44;71.89;102038.44;5830430;24;46795;-96
2021/08/24 04:16:30;;;;;;;;;29.75;24.50;;;;;17.31;72.22;102022.19;5929111;24;45285;-96
2021/08/24 04:20:09;;;;;;;;;;;;;;;;;;;;;
2021/08/24 04:34:36;;;;;;;;;;;;;;;;;;;;;
2021/08/24 17:05:14;;;;;;;;;;;;;;;;;;;;;
2021/08/24 17:07:36;;;;;;;;;;;;;;;;;;;;;
2021/08/24 17:40:16;;;;;;;;;;;;;;;;;;;;;
2021/08/24 18:02:49;;;;;;;;;7.00;5.25;;;;;22.12;42.42;101865.53;5528169;22;16919503;-96
2021/08/24 18:05:34;;;;;;;;;4.75;4.75;;;;;22.10;42.31;101856.63;6233111;22;45124;-96
2021/08/24 18:12:19;;;;;;;;;;;;;;;;;;;;;
2021/08/24 18:22:38;;;;;;;;;;;;;;;;;;;;;
2021/08/24 19:16:33;;;;;;;;;;;;;;;;;;;;;
2021/08/24 19:23:23;;;;;;;;;;;;;;;;;;;;;
2021/08/24 19:30:04;;;;;;;;;9.75;8.00;;;;;21.73;45.39;102006.91;6015425;23;45506;-96
2021/08/24 19:33:05;;;;;;;;;;;;;;;;;;;;;
2021/08/24 19:36:03;;;;;;;;;9.50;7.75;;;;;21.63;45.34;101991.38;6009068;23;70172;-96
2021/08/24 19:39:04;;;;;;;;;;;;;;;;;;;;;
2021/08/24 19:56:04;;;;;;;;;;;;;;;;;;;;;
2021/08/24 19:58:33;;;;;;;;;8.00;8.00;;;;;21.06;45.56;101940.06;5607469;25;68866;-96
2021/08/24 20:06:14;;;;;;;;;;;;;;;;;;;;;
2021/08/24 20:25:03;;;;;;;;;10.25;10.25;;;;;20.75;46.59;101951.00;6236259;22;45822;-96
2021/08/24 20:27:40;;;;;;;;;7.50;7.50;;;;;20.66;46.40;101935.44;6218202;22;45267;-96
2021/08/24 20:33:14;;;;;;;;;7.50;7.50;;;;;20.68;46.72;101940.75;6225077;22;45176;-96
2021/08/24 20:35:42;;;;;;;;;8.50;8.00;;;;;20.58;46.58;101924.31;6220245;22;45185;-96
2021/08/24 20:38:12;;;;;;;;;10.25;8.75;;;;;20.63;46.67;101937.56;6219259;22;44738;-96
2021/08/24 20:40:49;;;;;;;;;12.00;10.50;;;;;20.73;46.60;101963.03;6218144;22;46756;-95
2021/08/24 20:43:53;;;;;;;;;;;;;;;;;;;;;
2021/08/24 20:46:34;;;;;;;;;;;;;;;;;;;;;
2021/08/24 20:49:42;;;;;;;;;;;;;;;;;;;;;
2021/08/24 20:53:10;;;;;;;;;;;;;;;;;;;;;
2021/08/24 20:55:26;;;;;;;;;7.25;7.25;;;;;20.41;46.98;101928.56;6234698;22;45272;-96
2021/08/24 21:07:40;;;;;;;;;;;;;;;;;;;;;
2021/08/24 21:10:46;;;;;;;;;8.75;8.75;;;;;20.29;47.44;101942.28;6064480;23;68919;-96
2021/08/24 21:13:59;;;;;;;;;;;;;;;;;;;;;
2021/08/24 21:17:00;;;;;;;;;;;;;;;;;;;;;
2021/08/24 21:19:36;;;;;;;;;8.00;8.00;;;;;20.40;47.55;101960.41;6061964;23;72430;-96
2021/08/24 21:22:52;;;;;;;;;;;;;;;;;;;;;
2021/08/24 21:25:40;;;;;;;;;;;;;;;;;;;;;
2021/08/24 21:28:45;;;;;;;;;8.00;7.00;;;;;20.25;47.79;101961.75;6061376;23;75298;-95
2021/08/24 21:31:15;;;;;;;;;;;;;;;;;;;;;
2021/08/24 21:34:02;;;;;;;;;9.25;8.00;;;;;20.08;47.87;101935.97;6061977;23;69808;-96
2021/08/24 21:37:07;;;;;;;;;;;;;;;;;;;;;
2021/08/24 21:39:54;;;;;;;;;8.25;7.00;;;;;20.25;48.12;101987.19;5983683;23;73986;-96
2021/08/24 21:42:27;;;;;;;;;8.00;8.00;;;;;19.94;47.96;101927.13;6005176;23;45695;-96
2021/08/24 21:44:55;;;;;;;;;9.50;9.50;;;;;20.17;48.21;101975.19;6060911;23;45428;-96
2021/08/24 21:51:25;;;;;;;;;;;;;;;;;;;;;
2021/08/24 21:54:07;;;;;;;;;;;;;;;;;;;;;
2021/08/24 21:56:36;;;;;;;;;7.75;7.75;;;;;19.95;48.59;101953.38;6091272;23;68233;-96
2021/08/24 21:59:05;;;;;;;;;9.25;9.25;;;;;19.74;48.63;101917.06;6092046;23;45449;-95
2021/08/24 22:01:33;;;;;;;;;7.50;7.50;;;;;20.08;48.50;101974.13;6091660;23;46752;-96
2021/08/24 22:04:04;;;;;;;;;9.00;8.50;;;;;19.90;48.99;101952.06;6091475;23;45312;-95
2021/08/24 22:06:38;;;;;;;;;7.75;7.75;;;;;20.03;48.69;101980.00;6091753;23;45465;-96
2021/08/24 22:09:15;;;;;;;;;9.25;9.25;;;;;19.62;48.53;101916.25;6092386;23;45211;-96
2021/08/24 22:11:50;;;;;;;;;9.25;9.00;;;;;19.69;49.04;101939.22;6091426;23;47576;-96
2021/08/24 22:14:17;;;;;;;;;9.00;6.25;;;;;19.57;49.11;101922.09;6067086;23;45414;-95
2021/08/24 22:16:47;;;;;;;;;8.25;8.25;;;;;19.49;49.06;101909.09;6180845;22;45397;-95
2021/08/24 22:19:28;;;;;;;;;;;;;;;;;;;;;
2021/08/24 22:22:12;;;;;;;;;8.50;8.25;;;;;19.60;49.27;101932.69;6212187;22;75278;-96
2021/08/24 22:24:45;;;;;;;;;10.00;8.50;;;;;20.11;49.27;102034.72;6211773;22;45484;-96
2021/08/24 22:27:20;;;;;;;;;9.25;7.75;;;;;19.49;49.37;101930.03;6211885;22;45374;-96
2021/08/24 22:29:51;;;;;;;;;9.00;9.00;;;;;19.98;49.18;102015.81;6212136;22;45442;-96
2021/08/24 22:32:42;;;;;;;;;6.25;6.25;;;;;19.64;49.46;101966.00;6211848;22;46943;-94
2021/08/24 22:35:09;;;;;;;;;7.50;7.50;;;;;19.84;49.54;102002.47;6212713;22;45313;-96
2021/08/24 22:38:28;;;;;;;;;9.00;9.00;;;;;19.39;49.48;101938.97;6213691;22;45201;-96
2021/08/24 22:41:38;;;;;;;;;;;;;;;;;;;;;
2021/08/24 22:44:34;;;;;;;;;;;;;;;;;;;;;
2021/08/24 22:47:00;;;;;;;;;8.25;7.00;;;;;19.92;49.79;102040.88;6063310;23;72182;-96
2021/08/24 22:49:29;;;;;;;;;8.25;7.75;;;;;19.46;49.68;101972.00;6063569;23;45391;-96
2021/08/24 22:51:57;;;;;;;;;11.00;7.00;;;;;19.64;49.94;102013.19;6063224;23;45609;-96
2021/08/24 22:54:29;;;;;;;;;8.00;8.00;;;;;19.26;49.58;101941.00;6063162;23;46821;-96
2021/08/24 22:56:55;;;;;;;;;10.00;8.00;;;;;19.47;49.67;101987.34;6063794;23;45658;-96
2021/08/24 22:59:31;;;;;;;;;9.50;8.50;;;;;19.54;49.77;102001.34;6039575;23;45474;-95
2021/08/24 23:02:00;;;;;;;;;8.75;7.75;;;;;19.39;50.28;101982.53;6063964;23;45384;-96
2021/08/24 23:04:34;;;;;;;;;6.00;6.00;;;;;19.45;49.85;101994.78;6063977;23;46809;-96
2021/08/24 23:07:03;;;;;;;;;7.50;7.00;;;;;19.03;50.16;101926.56;6063431;23;45418;-96
2021/08/24 23:09:31;;;;;;;;;7.75;6.50;;;;;19.07;50.37;101931.63;6039541;23;45341;-96
2021/08/24 23:12:09;;;;;;;;;;;;;;;;;;;;;
2021/08/24 23:14:37;;;;;;;;;6.25;6.25;;;;;19.21;50.21;101968.63;6062714;23;74636;-96
2021/08/24 23:17:06;;;;;;;;;6.75;6.75;;;;;19.32;50.63;101981.31;6063867;23;45151;-96
2021/08/24 23:19:44;;;;;;;;;;;;;;;;;;;;;
2021/08/24 23:22:17;;;;;;;;;8.25;7.25;;;;;18.91;50.68;101920.22;6213863;22;69020;-96
2021/08/24 23:24:43;;;;;;;;;8.75;6.75;;;;;19.01;50.38;101936.72;6212331;22;47109;-96
2021/08/24 23:27:15;;;;;;;;;6.25;6.25;;;;;19.35;50.74;101999.28;6187974;22;45379;-95
2021/08/24 23:29:40;;;;;;;;;6.00;6.00;;;;;18.82;50.60;101905.53;6212791;22;45370;-96
2021/08/24 23:32:11;;;;;;;;;6.00;6.00;;;;;19.21;50.76;101975.91;6213058;22;45392;-96
2021/08/24 23:34:42;;;;;;;;;7.00;7.00;;;;;19.14;50.78;101959.19;6212571;22;47168;-96
2021/08/24 23:37:18;;;;;;;;;;;;;;;;;;;;;
2021/08/24 23:39:44;;;;;;;;;7.25;6.25;;;;;18.82;50.64;101916.41;6213830;22;67863;-96
2021/08/24 23:42:09;;;;;;;;;7.00;5.75;;;;;18.75;51.02;101909.75;6213382;22;45383;-96
2021/08/24 23:44:36;;;;;;;;;9.75;8.00;;;;;19.12;51.10;101973.94;6187743;22;46669;-96
2021/08/24 23:47:04;;;;;;;;;7.00;7.00;;;;;19.18;51.38;101987.91;6212851;22;45342;-96
2021/08/24 23:49:39;;;;;;;;;;;;;;;;;;;;;
2021/08/24 23:52:26;;;;;;;;;6.25;6.25;;;;;19.26;50.87;101998.19;6213359;22;69257;-96
2021/08/24 23:55:01;;;;;;;;;7.50;7.00;;;;;18.90;51.33;101935.72;6212978;22;46847;-96
2021/08/24 23:57:29;;;;;;;;;7.25;5.50;;;;;18.66;51.07;101897.75;6212552;22;45192;-95
2021/08/24 23:59:57;;;;;;;;;10.50;7.00;;;;;18.62;51.19;101899.00;6213029;22;45566;-96
